This is the latest recevied weather packets stored in our database for station/object IR3ZXT. If no packets are shown the sender has not sent any weather packets the latest 10 day(s).
| Time | Temp. | Humidity | Pressure | Rain* | Wind** | Luminosity | Snow |
|---|---|---|---|---|---|---|---|
| 1787743519 | 20.56° C | 60% | 869.1 hPa | 0 mm | - | - | - |
| 1787743219 | 21.11° C | 56% | 869.2 hPa | 0 mm | - | - | - |
| 1787742919 | 21.11° C | 58% | 869.2 hPa | 0 mm | - | - | - |
| 1787742619 | 21.67° C | 56% | 869.2 hPa | 0 mm | - | - | - |
| 1787742319 | 21.67° C | 59% | 869.2 hPa | 0 mm | - | - | - |
| 1787742019 | 21.11° C | 60% | 869.2 hPa | 0 mm | - | - | - |
| 1787741719 | 21.11° C | 59% | 869.2 hPa | 0 mm | - | - | - |
| 1787741419 | 20.56° C | 59% | 869.2 hPa | 0 mm | - | - | - |
| 1787741119 | 20.56° C | 58% | 869.2 hPa | 0 mm | - | - | - |
| 1787740819 | 20° C | 58% | 869.2 hPa | 0 mm | - | - | - |
| 1787740519 | 19.44° C | 58% | 869.1 hPa | 0 mm | - | - | - |
| 1787740219 | 18.89° C | 61% | 869.3 hPa | 0 mm | - | - | - |
| 1787739919 | 18.33° C | 60% | 869.3 hPa | 0 mm | - | - | - |
| 1787739619 | 17.78° C | 60% | 869.3 hPa | 0 mm | - | - | - |
| 1787739319 | 18.33° C | 58% | 869.3 hPa | 0 mm | - | - | - |
| 1787739019 | 18.89° C | 57% | 869.3 hPa | 0 mm | - | - | - |
| 1787738719 | 19.44° C | 56% | 869.4 hPa | 0 mm | - | - | - |
| 1787738422 | 20° C | 52% | 869.4 hPa | 0 mm | - | - | - |
| 1787738119 | 20° C | 55% | 869.3 hPa | 0 mm | - | - | - |
| 1787737855 | 19.44° C | 55% | 869.3 hPa | 0 mm | - | - | - |
| 1787737819 | 19.44° C | 55% | 869.3 hPa | 0 mm | - | - | - |
| 1787737519 | 19.44° C | 53% | 869.4 hPa | 0 mm | - | - | - |
| 1787737221 | 19.44° C | 54% | 869.3 hPa | 0 mm | - | - | - |
| 1787736919 | 18.89° C | 56% | 869.4 hPa | 0 mm | - | - | - |
| 1787736619 | 19.44° C | 55% | 869.5 hPa | 0 mm | - | - | - |
* Rain latest hour (hover to see other rain measurements)
** Current wind speed in m/s (hover to see current wind gust speed)